Time;durP1;ratioP1;P1;durP2;ratioP2;P2;SDS_P1;SDS_P2;PMS_P1;PMS_P2;Temp;Humidity;BMP_temperature;BMP_pressure;BME280_temperature;BME280_humidity;BME280_pressure;Samples;Min_cycle;Max_cycle;Signal;HPM_P1;HPM_P2
2023/04/22 00:00:20;;;;;;;2.87;1.90;;;9.30;57.50;;;;;;5040173;28;46349;-71
2023/04/22 00:02:46;;;;;;;3.97;2.17;;;9.40;57.70;;;;;;5035421;28;46467;-71
2023/04/22 00:05:13;;;;;;;3.40;2.20;;;9.40;57.50;;;;;;5042467;28;46380;-71
2023/04/22 00:07:41;;;;;;;3.23;2.00;;;9.50;57.60;;;;;;5040454;28;46853;-71
2023/04/22 00:10:08;;;;;;;3.60;2.33;;;9.40;57.70;;;;;;5041474;28;46399;-71
2023/04/22 00:12:34;;;;;;;3.20;1.83;;;9.40;58.00;;;;;;5041437;28;45953;-71
2023/04/22 00:14:59;;;;;;;3.53;2.13;;;9.40;58.40;;;;;;5041455;28;46511;-71
2023/04/22 00:17:25;;;;;;;4.33;2.00;;;9.40;58.30;;;;;;5040474;28;46991;-71
2023/04/22 00:19:51;;;;;;;2.83;1.90;;;9.40;58.20;;;;;;5041881;28;45877;-71
2023/04/22 00:22:17;;;;;;;2.47;1.60;;;9.40;58.20;;;;;;5040116;28;45754;-71
2023/04/22 00:24:43;;;;;;;3.00;1.77;;;9.40;58.20;;;;;;5038983;28;45827;-71
2023/04/22 00:27:08;;;;;;;4.40;1.80;;;9.40;58.30;;;;;;5042521;28;46522;-71
2023/04/22 00:29:34;;;;;;;2.90;1.97;;;9.40;58.30;;;;;;5041900;28;46368;-72
2023/04/22 00:32:00;;;;;;;3.43;1.87;;;9.40;58.50;;;;;;5041383;28;46446;-71
2023/04/22 00:34:25;;;;;;;4.27;2.00;;;9.30;58.50;;;;;;5042121;28;46310;-71
2023/04/22 00:36:51;;;;;;;1.87;1.43;;;9.40;58.50;;;;;;5041047;28;46422;-71
2023/04/22 00:39:17;;;;;;;2.10;1.50;;;9.40;58.40;;;;;;5041250;28;46487;-71
2023/04/22 00:41:42;;;;;;;1.80;1.20;;;9.40;58.60;;;;;;5040765;28;46369;-71
2023/04/22 00:44:10;;;;;;;1.83;1.20;;;9.30;58.50;;;;;;5041011;28;45848;-71
2023/04/22 00:46:37;;;;;;;2.00;1.20;;;9.20;58.70;;;;;;5042597;28;46103;-71
2023/04/22 00:49:04;;;;;;;2.30;1.40;;;9.10;59.10;;;;;;5040999;28;46294;-71
2023/04/22 00:51:30;;;;;;;2.60;1.67;;;9.00;59.60;;;;;;5040888;28;46080;-71
2023/04/22 00:53:56;;;;;;;2.30;1.43;;;8.90;60.00;;;;;;5047301;28;45931;-71
2023/04/22 00:56:25;;;;;;;3.00;1.70;;;8.90;60.20;;;;;;5041260;28;47283;-70
2023/04/22 00:58:53;;;;;;;3.80;1.60;;;8.90;60.00;;;;;;5037772;28;46531;-71
2023/04/22 01:01:18;;;;;;;2.80;1.77;;;8.90;60.00;;;;;;5041781;28;45843;-71
2023/04/22 01:03:46;;;;;;;2.30;1.57;;;8.90;59.90;;;;;;5041016;28;46317;-71
2023/04/22 01:06:12;;;;;;;3.73;2.07;;;9.00;59.60;;;;;;5042154;28;46376;-70
2023/04/22 01:08:39;;;;;;;4.10;2.13;;;9.00;59.50;;;;;;5040803;28;46500;-71
2023/04/22 01:11:05;;;;;;;2.97;1.97;;;9.00;59.50;;;;;;5040848;28;46493;-70
2023/04/22 01:13:31;;;;;;;3.03;1.90;;;9.00;59.60;;;;;;5038818;28;46608;-71
2023/04/22 01:15:59;;;;;;;2.70;1.67;;;9.00;59.70;;;;;;5039681;28;47229;-71
2023/04/22 01:18:25;;;;;;;6.43;1.80;;;9.00;59.60;;;;;;5040054;28;46377;-71
2023/04/22 01:20:51;;;;;;;2.47;1.67;;;9.00;59.60;;;;;;5039372;28;46458;-71
2023/04/22 01:23:21;;;;;;;4.20;2.23;;;9.00;59.40;;;;;;5038078;28;46448;-71
2023/04/22 01:25:47;;;;;;;2.97;2.00;;;9.10;59.40;;;;;;5041285;28;46360;-71
2023/04/22 01:28:14;;;;;;;8.50;4.03;;;9.00;59.60;;;;;;5040339;28;46447;-71
2023/04/22 01:30:41;;;;;;;4.67;2.93;;;9.00;59.80;;;;;;5040055;28;45796;-71
2023/04/22 01:33:08;;;;;;;4.33;2.80;;;9.00;59.90;;;;;;5040460;28;46345;-71
2023/04/22 01:35:35;;;;;;;5.20;2.33;;;9.10;60.00;;;;;;5039962;28;47155;-71
2023/04/22 01:38:06;;;;;;;3.90;2.80;;;9.10;60.00;;;;;;5060804;28;46377;-71
2023/04/22 01:40:33;;;;;;;4.70;2.80;;;9.10;60.00;;;;;;5037709;28;46455;-71
2023/04/22 01:42:59;;;;;;;4.17;2.67;;;9.10;60.20;;;;;;5037365;28;46648;-71
2023/04/22 01:45:26;;;;;;;6.30;2.00;;;9.10;60.40;;;;;;5038813;28;47041;-70
2023/04/22 01:47:52;;;;;;;5.00;2.00;;;9.00;60.40;;;;;;5039297;28;46346;-70
2023/04/22 01:50:18;;;;;;;3.10;1.80;;;9.00;60.80;;;;;;5038289;28;46544;-71
2023/04/22 01:52:43;;;;;;;2.50;1.53;;;8.90;61.00;;;;;;5041021;28;46432;-71
2023/04/22 01:55:09;;;;;;;3.77;1.80;;;8.80;61.20;;;;;;5035985;28;47029;-71
2023/04/22 01:57:35;;;;;;;2.47;1.80;;;8.80;61.50;;;;;;5041309;28;46437;-70
2023/04/22 02:00:01;;;;;;;2.00;1.60;;;8.80;61.70;;;;;;5037257;28;46266;-71
2023/04/22 02:02:26;;;;;;;2.30;1.70;;;8.70;61.70;;;;;;5037843;28;46429;-71
2023/04/22 02:04:52;;;;;;;2.60;1.57;;;8.70;61.80;;;;;;5040624;28;46563;-71
2023/04/22 02:07:18;;;;;;;2.70;1.80;;;8.70;61.60;;;;;;5037838;28;45916;-71
2023/04/22 02:09:43;;;;;;;3.93;2.20;;;8.70;61.50;;;;;;5038929;28;46290;-71
2023/04/22 02:12:09;;;;;;;3.37;2.53;;;8.70;61.50;;;;;;5038084;28;45887;-71
2023/04/22 02:14:35;;;;;;;7.47;2.70;;;8.80;61.70;;;;;;5039016;28;46317;-71
2023/04/22 02:17:01;;;;;;;5.87;3.13;;;8.70;61.40;;;;;;5034921;28;46409;-71
2023/04/22 02:19:27;;;;;;;5.43;3.57;;;8.70;62.70;;;;;;5039490;28;46460;-71
2023/04/22 02:21:53;;;;;;;5.57;3.23;;;8.70;61.50;;;;;;5036791;28;46312;-71
2023/04/22 02:24:19;;;;;;;9.90;3.00;;;8.70;61.60;;;;;;5039119;28;46146;-70
2023/04/22 02:26:46;;;;;;;12.27;3.60;;;8.70;61.70;;;;;;5038834;28;46755;-70
2023/04/22 02:29:12;;;;;;;4.87;2.80;;;8.70;61.90;;;;;;5038546;28;46441;-71
2023/04/22 02:31:37;;;;;;;6.53;3.70;;;8.70;61.80;;;;;;5040863;28;46416;-70
2023/04/22 02:34:03;;;;;;;6.13;3.40;;;8.70;61.90;;;;;;5038892;28;47116;-70
2023/04/22 02:36:30;;;;;;;5.83;3.30;;;8.70;61.90;;;;;;5040177;28;46507;-70
2023/04/22 02:38:56;;;;;;;5.10;3.30;;;8.70;61.80;;;;;;5037956;28;46536;-70
2023/04/22 02:41:22;;;;;;;5.87;3.37;;;8.70;61.80;;;;;;5037957;28;46320;-70
2023/04/22 02:43:47;;;;;;;9.50;3.03;;;8.60;61.80;;;;;;5038310;28;46135;-70
2023/04/22 02:46:15;;;;;;;6.67;2.90;;;8.60;61.90;;;;;;5036740;28;46456;-70
2023/04/22 02:48:41;;;;;;;4.30;2.83;;;8.60;62.00;;;;;;5040068;28;46497;-70
2023/04/22 02:51:07;;;;;;;3.50;2.70;;;8.60;62.10;;;;;;5037542;28;46432;-71
2023/04/22 02:53:33;;;;;;;3.50;2.80;;;8.50;62.30;;;;;;5038968;28;46503;-71
2023/04/22 02:55:58;;;;;;;4.80;3.00;;;8.50;62.80;;;;;;5039529;28;46298;-70
2023/04/22 02:58:25;;;;;;;5.80;3.00;;;8.50;62.90;;;;;;5039984;28;46419;-71
2023/04/22 03:00:51;;;;;;;4.77;3.17;;;8.50;62.80;;;;;;5038035;28;46407;-71
2023/04/22 03:03:17;;;;;;;6.80;3.17;;;8.50;62.90;;;;;;5038347;28;46328;-70
2023/04/22 03:05:42;;;;;;;5.53;3.43;;;8.50;63.10;;;;;;5039935;28;46286;-70
2023/04/22 03:08:08;;;;;;;6.03;3.10;;;8.50;63.10;;;;;;5037869;28;47166;-70
2023/04/22 03:10:34;;;;;;;4.30;2.70;;;8.50;63.00;;;;;;5034939;28;46459;-70
2023/04/22 03:13:00;;;;;;;3.77;2.70;;;8.50;63.00;;;;;;5037856;28;46554;-70
2023/04/22 03:15:25;;;;;;;3.20;2.60;;;8.40;63.10;;;;;;5036188;28;46337;-70
2023/04/22 03:17:51;;;;;;;5.23;2.50;;;8.40;63.30;;;;;;5039166;28;46419;-71
2023/04/22 03:20:17;;;;;;;3.00;2.33;;;8.40;63.50;;;;;;5036352;28;46664;-71
2023/04/22 03:22:43;;;;;;;3.27;2.30;;;8.30;63.50;;;;;;5037647;28;46021;-71
2023/04/22 03:25:10;;;;;;;3.57;2.37;;;8.20;63.90;;;;;;5039908;28;46382;-71
2023/04/22 03:27:35;;;;;;;5.33;2.23;;;8.10;64.20;;;;;;5042658;28;46363;-71
2023/04/22 03:30:02;;;;;;;3.80;2.40;;;8.00;64.10;;;;;;5047212;28;45823;-71
2023/04/22 03:32:27;;;;;;;3.03;2.13;;;7.90;64.40;;;;;;5042867;28;46403;-71
2023/04/22 03:34:53;;;;;;;3.00;2.30;;;7.90;64.80;;;;;;5039610;28;46458;-69
2023/04/22 03:37:18;;;;;;;2.80;1.80;;;7.80;64.90;;;;;;5050473;28;45719;-70
2023/04/22 03:39:44;;;;;;;3.50;2.10;;;7.70;65.10;;;;;;5044903;28;45898;-71
2023/04/22 03:42:11;;;;;;;3.50;2.10;;;7.60;65.20;;;;;;5042157;28;46365;-70
2023/04/22 03:44:36;;;;;;;2.60;1.90;;;7.60;65.40;;;;;;5041161;28;46380;-70
2023/04/22 03:47:02;;;;;;;3.30;1.83;;;7.50;65.20;;;;;;5041616;28;46396;-71
2023/04/22 03:49:28;;;;;;;2.20;1.53;;;7.40;66.60;;;;;;5042310;28;46638;-70
2023/04/22 03:51:53;;;;;;;2.70;1.97;;;7.30;65.60;;;;;;5043682;28;46360;-71
2023/04/22 03:54:19;;;;;;;2.77;1.67;;;7.30;65.80;;;;;;5041296;28;46317;-70
2023/04/22 03:56:45;;;;;;;3.37;1.90;;;7.30;65.80;;;;;;5042174;28;46345;-70
2023/04/22 03:59:10;;;;;;;3.20;2.03;;;7.30;65.60;;;;;;5041286;28;45901;-70
2023/04/22 04:01:36;;;;;;;3.37;2.00;;;7.30;65.50;;;;;;5041530;28;46391;-70
2023/04/22 04:04:02;;;;;;;2.40;1.70;;;7.30;65.40;;;;;;5040582;28;46373;-70
2023/04/22 04:06:28;;;;;;;2.23;1.60;;;7.30;65.30;;;;;;5041521;28;46368;-70
2023/04/22 04:08:54;;;;;;;3.70;1.70;;;7.30;65.20;;;;;;5038182;28;46377;-71
2023/04/22 04:11:19;;;;;;;2.23;1.50;;;7.30;65.10;;;;;;5043089;28;47335;-70
2023/04/22 04:13:45;;;;;;;2.60;1.70;;;7.30;65.10;;;;;;5040684;28;46512;-70
2023/04/22 04:16:11;;;;;;;2.00;1.60;;;7.30;65.00;;;;;;5042425;28;46677;-71
2023/04/22 04:18:37;;;;;;;2.70;1.50;;;7.40;64.90;;;;;;5042917;28;46508;-70
2023/04/22 04:21:03;;;;;;;2.97;1.97;;;7.40;64.90;;;;;;5040690;28;46034;-70
2023/04/22 04:23:29;;;;;;;5.27;2.23;;;7.50;64.70;;;;;;5039254;28;45981;-71
2023/04/22 04:25:54;;;;;;;8.33;2.20;;;7.50;64.40;;;;;;5040676;28;46455;-71
2023/04/22 04:28:20;;;;;;;2.73;1.90;;;7.60;64.30;;;;;;5042728;28;46619;-74
2023/04/22 04:30:46;;;;;;;2.47;1.80;;;7.70;64.00;;;;;;5040275;28;47031;-70
2023/04/22 04:33:15;;;;;;;3.03;2.20;;;7.80;63.80;;;;;;5040422;28;45862;-70
2023/04/22 04:35:42;;;;;;;27.53;12.00;;;7.90;63.90;;;;;;5041891;28;46340;-70
2023/04/22 04:38:07;;;;;;;18.00;8.83;;;8.00;63.70;;;;;;5040384;28;46710;-70
2023/04/22 04:40:35;;;;;;;7.63;5.13;;;8.10;63.80;;;;;;5041026;28;47230;-70
2023/04/22 04:43:03;;;;;;;11.27;6.60;;;8.30;63.80;;;;;;5040034;28;46372;-71
2023/04/22 04:45:28;;;;;;;39.40;16.80;;;8.40;63.30;;;;;;5040181;28;46462;-71
2023/04/22 04:47:54;;;;;;;27.90;12.90;;;8.50;64.30;;;;;;5037535;28;46429;-70
2023/04/22 04:50:20;;;;;;;13.70;5.90;;;8.60;62.80;;;;;;5040699;28;46435;-70
2023/04/22 04:52:49;;;;;;;6.70;3.53;;;8.70;62.80;;;;;;5041031;28;46476;-69
2023/04/22 04:55:16;;;;;;;3.40;2.50;;;8.80;62.80;;;;;;5036287;28;46309;-70
2023/04/22 04:57:43;;;;;;;3.67;2.40;;;8.90;63.10;;;;;;5040527;28;47012;-70
2023/04/22 05:00:09;;;;;;;3.00;2.10;;;9.00;63.10;;;;;;5039794;28;46856;-70
2023/04/22 05:02:35;;;;;;;2.10;1.77;;;9.20;62.90;;;;;;5038476;28;47014;-70
2023/04/22 05:05:01;;;;;;;4.20;2.20;;;9.40;62.70;;;;;;5040651;28;46538;-71
2023/04/22 05:07:26;;;;;;;3.00;2.00;;;9.60;62.20;;;;;;5041359;28;46538;-70
2023/04/22 05:09:53;;;;;;;4.03;2.00;;;9.80;61.80;;;;;;5038027;28;47207;-70
2023/04/22 05:12:18;;;;;;;5.30;1.90;;;10.00;60.50;;;;;;5039221;28;46411;-71
2023/04/22 05:14:45;;;;;;;2.73;1.90;;;10.20;60.20;;;;;;5038559;28;46478;-71
2023/04/22 05:17:11;;;;;;;3.00;2.03;;;10.40;59.70;;;;;;5038183;28;46328;-70
2023/04/22 05:19:37;;;;;;;4.43;2.10;;;11.00;59.00;;;;;;5040006;28;46458;-71
2023/04/22 05:22:03;;;;;;;2.50;1.90;;;11.80;59.20;;;;;;5041523;28;45957;-69
2023/04/22 05:24:28;;;;;;;3.07;2.10;;;12.40;59.20;;;;;;5043810;28;46403;-72
2023/04/22 05:26:54;;;;;;;17.20;9.23;;;13.20;58.70;;;;;;5040700;28;46395;-71
2023/04/22 05:29:19;;;;;;;4.40;2.80;;;13.80;57.70;;;;;;5039075;28;47415;-71
2023/04/22 05:31:45;;;;;;;3.03;1.97;;;14.20;56.60;;;;;;5040699;28;46466;-71
2023/04/22 05:34:11;;;;;;;2.80;1.90;;;14.70;56.00;;;;;;5042996;28;45866;-71
2023/04/22 05:36:37;;;;;;;2.77;1.80;;;14.90;54.90;;;;;;5048270;28;46481;-71
2023/04/22 05:39:03;;;;;;;4.00;2.07;;;15.00;54.20;;;;;;5037657;28;47039;-71
2023/04/22 05:41:28;;;;;;;2.50;1.70;;;15.10;53.30;;;;;;5040238;28;46513;-72
2023/04/22 05:43:54;;;;;;;4.30;1.70;;;15.40;51.20;;;;;;5041373;28;45875;-71
2023/04/22 05:46:20;;;;;;;3.40;1.70;;;15.90;49.40;;;;;;5038713;28;46405;-71
2023/04/22 05:48:47;;;;;;;3.60;1.70;;;16.50;48.20;;;;;;5038354;28;46093;-71
2023/04/22 05:51:13;;;;;;;4.17;2.47;;;16.90;46.80;;;;;;5039835;28;46369;-72
2023/04/22 05:53:38;;;;;;;4.20;2.73;;;17.70;45.00;;;;;;5038903;28;46331;-72
2023/04/22 05:56:04;;;;;;;5.20;2.03;;;18.30;43.00;;;;;;5039386;28;46535;-71
2023/04/22 05:58:30;;;;;;;9.20;2.00;;;18.90;41.60;;;;;;5040321;28;47122;-72
2023/04/22 06:00:55;;;;;;;4.07;2.10;;;19.10;41.00;;;;;;5037776;28;46519;-72
2023/04/22 06:03:21;;;;;;;3.83;1.90;;;19.40;40.70;;;;;;5039652;28;46435;-72
2023/04/22 06:05:47;;;;;;;3.50;1.80;;;19.50;38.30;;;;;;5041592;28;46343;-70
2023/04/22 06:08:12;;;;;;;5.10;1.87;;;19.70;37.60;;;;;;5037686;28;46387;-71
2023/04/22 06:10:38;;;;;;;4.57;2.30;;;19.90;37.00;;;;;;5041278;28;46368;-71
2023/04/22 06:13:04;;;;;;;4.80;1.50;;;19.80;36.30;;;;;;5039762;28;46455;-71
2023/04/22 06:15:29;;;;;;;4.63;1.80;;;19.30;36.60;;;;;;5040754;28;45867;-71
2023/04/22 06:17:55;;;;;;;5.37;1.87;;;18.50;36.90;;;;;;5039387;28;46603;-71
2023/04/22 06:20:20;;;;;;;3.60;1.90;;;18.00;37.80;;;;;;5039416;28;46392;-71
2023/04/22 06:22:46;;;;;;;5.27;2.40;;;17.70;38.20;;;;;;5039474;28;45808;-72
2023/04/22 06:25:12;;;;;;;5.97;2.13;;;17.40;38.30;;;;;;5039262;28;46261;-73
2023/04/22 06:27:37;;;;;;;3.70;1.90;;;17.50;37.40;;;;;;5039189;28;46517;-71
2023/04/22 06:30:04;;;;;;;3.77;2.10;;;17.20;37.40;;;;;;5038750;28;46313;-71
2023/04/22 06:32:30;;;;;;;5.10;1.80;;;16.80;38.00;;;;;;5039443;28;46286;-70
2023/04/22 06:34:55;;;;;;;4.50;2.37;;;16.40;38.90;;;;;;5040557;28;46410;-70
2023/04/22 06:37:21;;;;;;;6.03;2.07;;;16.10;39.10;;;;;;5039725;28;46503;-70
2023/04/22 06:39:46;;;;;;;3.50;2.20;;;16.30;38.10;;;;;;5039383;28;45821;-69
2023/04/22 06:42:12;;;;;;;3.30;2.03;;;16.50;37.40;;;;;;5037177;28;46520;-68
2023/04/22 06:44:38;;;;;;;4.10;2.00;;;16.90;36.10;;;;;;5040167;28;46393;-67
2023/04/22 06:47:03;;;;;;;4.70;2.40;;;17.20;35.30;;;;;;5035056;28;48016;-69
2023/04/22 06:49:29;;;;;;;3.50;2.10;;;16.80;36.50;;;;;;5038054;28;46557;-68
2023/04/22 06:51:55;;;;;;;3.97;1.90;;;16.50;38.80;;;;;;5040141;28;46509;-68
2023/04/22 06:54:20;;;;;;;4.00;2.30;;;16.20;38.40;;;;;;5038737;28;46674;-67
2023/04/22 06:56:46;;;;;;;3.07;1.77;;;15.90;39.40;;;;;;5039010;28;46333;-67
2023/04/22 06:59:12;;;;;;;8.17;2.30;;;15.60;40.00;;;;;;5038428;28;46393;-68
2023/04/22 07:01:38;;;;;;;3.50;2.00;;;15.70;40.50;;;;;;5040564;28;45806;-68
2023/04/22 07:04:03;;;;;;;3.50;2.03;;;15.70;40.80;;;;;;5039951;28;46344;-68
2023/04/22 07:06:29;;;;;;;4.23;2.17;;;15.70;40.90;;;;;;5040162;28;46298;-68
2023/04/22 07:08:55;;;;;;;3.03;1.80;;;15.80;40.90;;;;;;5038006;28;46388;-67
2023/04/22 07:11:20;;;;;;;7.87;3.20;;;15.80;41.20;;;;;;5040366;28;46525;-68
2023/04/22 07:13:46;;;;;;;4.60;2.60;;;15.80;41.00;;;;;;5039955;28;46603;-68
2023/04/22 07:16:12;;;;;;;3.60;2.00;;;15.80;40.90;;;;;;5040845;28;46448;-67
2023/04/22 07:18:38;;;;;;;3.20;1.80;;;16.00;40.70;;;;;;5037535;28;46353;-68
2023/04/22 07:21:04;;;;;;;3.80;1.80;;;16.00;40.30;;;;;;5038722;28;46361;-68
2023/04/22 07:23:30;;;;;;;3.80;2.13;;;16.10;40.30;;;;;;5039461;28;46823;-68
2023/04/22 07:25:55;;;;;;;3.73;1.90;;;16.10;40.40;;;;;;5040161;28;47245;-67
2023/04/22 07:28:21;;;;;;;6.00;2.23;;;16.30;40.50;;;;;;5040533;28;46322;-67
2023/04/22 07:30:47;;;;;;;5.00;2.80;;;16.40;40.20;;;;;;5036339;28;46357;-67
2023/04/22 07:33:13;;;;;;;3.63;2.20;;;16.60;39.90;;;;;;5039159;28;45991;-68
2023/04/22 07:35:39;;;;;;;3.80;2.10;;;16.70;39.60;;;;;;5041260;28;46350;-68
2023/04/22 07:38:04;;;;;;;3.70;2.27;;;16.60;39.40;;;;;;5036212;28;46479;-68
2023/04/22 07:40:30;;;;;;;6.60;2.30;;;16.60;39.50;;;;;;5038763;28;46185;-68
2023/04/22 07:42:56;;;;;;;4.03;2.43;;;16.80;39.40;;;;;;5036360;28;46403;-68
2023/04/22 07:45:21;;;;;;;4.40;2.20;;;16.80;39.20;;;;;;5038624;28;47610;-68
2023/04/22 07:47:47;;;;;;;4.37;2.30;;;16.80;39.20;;;;;;5036286;28;46383;-69
2023/04/22 07:50:12;;;;;;;5.20;2.10;;;17.00;39.30;;;;;;5037973;28;46306;-68
2023/04/22 07:52:38;;;;;;;4.37;2.40;;;17.10;39.30;;;;;;5039528;28;46534;-68
2023/04/22 07:55:05;;;;;;;5.13;1.93;;;17.20;39.10;;;;;;5039295;28;47004;-67
2023/04/22 07:57:31;;;;;;;3.27;1.93;;;17.30;38.70;;;;;;5038713;28;46479;-68
2023/04/22 07:59:57;;;;;;;5.13;2.10;;;17.50;38.30;;;;;;5037135;28;46445;-68
2023/04/22 08:02:23;;;;;;;3.30;1.93;;;17.70;37.70;;;;;;5037050;28;46389;-68
2023/04/22 08:04:48;;;;;;;4.80;2.40;;;17.60;38.00;;;;;;5038351;28;47958;-68
2023/04/22 08:07:14;;;;;;;9.20;2.30;;;17.60;38.20;;;;;;5038575;28;46355;-67
2023/04/22 08:09:40;;;;;;;8.20;3.93;;;17.90;37.80;;;;;;5038451;28;45865;-67
2023/04/22 08:12:05;;;;;;;4.00;2.10;;;18.00;37.20;;;;;;5040205;28;46468;-67
2023/04/22 08:14:31;;;;;;;9.30;4.43;;;18.20;36.80;;;;;;5042122;28;46402;-69
2023/04/22 08:16:57;;;;;;;5.63;2.00;;;18.30;36.60;;;;;;5043188;28;46519;-66
2023/04/22 08:19:22;;;;;;;6.67;3.17;;;18.60;36.20;;;;;;5041667;28;46439;-68
2023/04/22 08:21:48;;;;;;;11.33;2.00;;;18.80;35.90;;;;;;5040483;28;46665;-69
2023/04/22 08:24:13;;;;;;;45.80;6.03;;;18.80;35.40;;;;;;5038714;28;46397;-69
2023/04/22 08:26:39;;;;;;;8.03;1.77;;;18.90;34.90;;;;;;5042635;28;46528;-68
2023/04/22 08:29:06;;;;;;;3.47;1.80;;;19.10;34.50;;;;;;5041158;28;46451;-68
2023/04/22 08:31:32;;;;;;;5.43;1.53;;;19.30;33.70;;;;;;5040687;28;46525;-69
2023/04/22 08:33:57;;;;;;;5.27;2.03;;;19.20;33.30;;;;;;5040240;28;46357;-68
2023/04/22 08:36:25;;;;;;;2.90;1.67;;;19.20;33.30;;;;;;5041620;28;46400;-67
2023/04/22 08:38:51;;;;;;;5.67;2.83;;;19.30;33.30;;;;;;5040978;28;46409;-68
2023/04/22 08:41:18;;;;;;;3.00;1.37;;;19.40;33.30;;;;;;5041883;28;46424;-67
2023/04/22 08:43:45;;;;;;;2.83;1.43;;;19.40;32.20;;;;;;5039053;28;46531;-68
2023/04/22 08:46:11;;;;;;;3.30;1.60;;;19.20;31.40;;;;;;5040014;28;46404;-67
2023/04/22 08:48:37;;;;;;;4.40;1.90;;;19.10;31.30;;;;;;5041796;28;46331;-68
2023/04/22 08:51:02;;;;;;;3.33;1.70;;;19.20;31.70;;;;;;5041668;28;46440;-68
2023/04/22 08:53:29;;;;;;;51.63;5.00;;;19.40;31.70;;;;;;5049324;28;46467;-68
2023/04/22 08:55:56;;;;;;;3.20;1.63;;;19.60;31.40;;;;;;5042061;28;46402;-68
2023/04/22 08:58:22;;;;;;;2.50;1.50;;;19.70;30.60;;;;;;5041071;28;46425;-68
2023/04/22 09:00:48;;;;;;;3.00;1.70;;;19.80;29.90;;;;;;5040299;28;46482;-68
2023/04/22 09:03:15;;;;;;;2.77;1.43;;;19.70;29.70;;;;;;5039310;28;46625;-67
2023/04/22 09:05:41;;;;;;;2.63;1.43;;;19.80;29.70;;;;;;5042414;28;46017;-68
2023/04/22 09:08:09;;;;;;;3.93;1.60;;;19.80;29.20;;;;;;5041661;28;46476;-68
2023/04/22 09:10:38;;;;;;;3.90;1.40;;;19.80;28.90;;;;;;5042762;28;45878;-68
2023/04/22 09:13:05;;;;;;;2.90;1.40;;;19.80;28.40;;;;;;5037361;28;46405;-68
2023/04/22 09:15:31;;;;;;;2.47;1.40;;;19.90;28.20;;;;;;5040300;28;46445;-68
2023/04/22 09:18:00;;;;;;;3.37;1.70;;;20.00;28.00;;;;;;5042046;28;46494;-68
2023/04/22 09:20:27;;;;;;;3.43;1.40;;;19.90;27.50;;;;;;5040531;28;46457;-68
2023/04/22 09:22:53;;;;;;;4.00;1.60;;;19.80;27.50;;;;;;5040873;28;46578;-68
2023/04/22 09:25:25;;;;;;;4.33;1.30;;;19.90;27.50;;;;;;5042221;28;46469;-69
2023/04/22 09:27:55;;;;;;;3.20;1.30;;;19.90;27.10;;;;;;5041226;28;45832;-68
2023/04/22 09:30:33;;;;;;;3.30;1.60;;;20.10;27.50;;;;;;5040238;28;46392;-68
2023/04/22 09:33:02;;;;;;;3.03;1.67;;;20.30;27.30;;;;;;5036997;28;48759;-67
2023/04/22 09:35:36;;;;;;;2.93;1.40;;;20.30;26.90;;;;;;5041054;28;46506;-68
2023/04/22 09:38:03;;;;;;;2.73;1.27;;;20.40;27.50;;;;;;5040244;28;45894;-68
2023/04/22 09:40:30;;;;;;;2.40;1.40;;;20.40;26.40;;;;;;5040626;28;46470;-67
2023/04/22 09:42:58;;;;;;;3.27;1.67;;;20.50;26.30;;;;;;5038771;28;46643;-68
2023/04/22 09:45:40;;;;;;;4.10;1.40;;;20.60;26.10;;;;;;5040421;28;46353;-69
2023/04/22 09:48:10;;;;;;;2.83;1.30;;;20.60;25.60;;;;;;5040347;28;46318;-68
2023/04/22 09:50:37;;;;;;;2.73;1.23;;;20.60;25.70;;;;;;5040603;28;46376;-68
2023/04/22 09:53:05;;;;;;;3.00;1.30;;;20.50;25.80;;;;;;5038064;28;47009;-68
2023/04/22 09:55:33;;;;;;;2.67;1.10;;;20.30;25.60;;;;;;5037600;28;46390;-68
2023/04/22 09:58:11;;;;;;;2.80;1.13;;;20.40;25.60;;;;;;5039427;28;46210;-67
2023/04/22 10:00:50;;;;;;;3.27;1.50;;;20.50;25.10;;;;;;5038777;28;46455;-68
2023/04/22 10:03:17;;;;;;;2.87;1.40;;;20.60;25.00;;;;;;5038383;28;46544;-68
2023/04/22 10:05:44;;;;;;;4.20;1.50;;;20.60;25.30;;;;;;5036516;28;46671;-68
2023/04/22 10:08:12;;;;;;;2.70;1.30;;;20.70;25.20;;;;;;5038494;28;46428;-68
2023/04/22 10:10:38;;;;;;;2.47;1.30;;;20.80;24.40;;;;;;5037043;28;46349;-68
2023/04/22 10:13:04;;;;;;;3.20;1.33;;;20.80;24.00;;;;;;5038392;28;47109;-68
2023/04/22 10:15:41;;;;;;;4.00;1.70;;;20.90;23.10;;;;;;5038301;28;46369;-67
2023/04/22 10:18:10;;;;;;;2.50;1.27;;;21.10;23.20;;;;;;5038458;28;45778;-68
2023/04/22 10:20:38;;;;;;;4.53;1.57;;;21.20;24.20;;;;;;5055882;28;46636;-67
2023/04/22 10:23:10;;;;;;;2.83;1.37;;;21.30;22.70;;;;;;5038659;28;47090;-68
2023/04/22 10:25:38;;;;;;;4.00;1.23;;;21.30;22.80;;;;;;5040389;28;46443;-67
2023/04/22 10:28:06;;;;;;;3.53;1.20;;;21.40;22.70;;;;;;5041746;28;46450;-68
2023/04/22 10:30:38;;;;;;;2.70;1.20;;;21.40;22.00;;;;;;5040730;28;45942;-68
2023/04/22 10:33:30;;;;;;;3.27;1.93;;;21.40;21.00;;;;;;5042020;28;47169;-68
2023/04/22 10:36:16;;;;;;;4.10;1.40;;;21.50;20.90;;;;;;5041082;28;46486;-67
2023/04/22 10:39:01;;;;;;;2.27;1.07;;;21.70;20.70;;;;;;5040275;28;46104;-68
2023/04/22 10:41:32;;;;;;;2.70;1.20;;;22.00;21.20;;;;;;5039748;28;46476;-68
2023/04/22 10:44:00;;;;;;;2.17;0.97;;;22.20;19.50;;;;;;5039469;28;46575;-67
2023/04/22 10:46:46;;;;;;;5.23;1.40;;;22.20;18.90;;;;;;5037236;28;46354;-68
2023/04/22 10:49:16;;;;;;;2.60;1.20;;;22.20;17.50;;;;;;5036979;28;46435;-67
2023/04/22 10:51:47;;;;;;;6.40;1.07;;;22.10;17.20;;;;;;5039061;28;46223;-69
2023/04/22 10:54:38;;;;;;;2.37;1.10;;;22.10;16.40;;;;;;5038141;28;46999;-67
2023/04/22 10:57:18;;;;;;;2.80;1.20;;;22.20;15.70;;;;;;5039682;28;46306;-67
2023/04/22 10:59:50;;;;;;;16.43;1.33;;;22.40;15.00;;;;;;5035897;28;46483;-68
2023/04/22 11:02:17;;;;;;;2.87;1.20;;;22.50;14.30;;;;;;5037149;28;46440;-66
2023/04/22 11:04:43;;;;;;;2.53;1.10;;;22.40;14.00;;;;;;5034970;28;47333;-68
2023/04/22 11:07:30;;;;;;;2.23;1.10;;;22.50;14.10;;;;;;5039085;28;46426;-68
2023/04/22 11:10:06;;;;;;;5.93;1.23;;;22.60;13.10;;;;;;5035798;28;46381;-67
2023/04/22 11:12:43;;;;;;;2.93;1.53;;;22.50;13.10;;;;;;5038014;28;46450;-67
2023/04/22 11:15:21;;;;;;;4.17;1.53;;;22.60;13.20;;;;;;5031744;28;46429;-69
2023/04/22 11:17:49;;;;;;;3.80;1.40;;;22.70;13.10;;;;;;5036723;28;46479;-68
2023/04/22 11:20:18;;;;;;;2.27;1.13;;;22.70;13.20;;;;;;5033986;28;46421;-70
2023/04/22 11:22:46;;;;;;;3.50;1.20;;;22.80;12.60;;;;;;5037100;28;46639;-69
2023/04/22 11:25:13;;;;;;;2.60;1.20;;;23.10;11.80;;;;;;5039011;28;46286;-69
2023/04/22 11:27:42;;;;;;;2.60;1.23;;;23.20;11.30;;;;;;5035900;28;45840;-68
2023/04/22 11:30:16;;;;;;;2.60;1.20;;;23.30;11.20;;;;;;5038492;28;46347;-68
2023/04/22 11:32:47;;;;;;;4.87;1.60;;;23.40;11.30;;;;;;5034805;28;46436;-67
2023/04/22 11:35:15;;;;;;;2.57;1.27;;;23.70;11.10;;;;;;5038406;28;46525;-69
2023/04/22 11:37:49;;;;;;;4.17;1.30;;;23.80;11.10;;;;;;5036237;28;46676;-68
2023/04/22 11:40:26;;;;;;;2.83;1.20;;;23.80;11.50;;;;;;5038398;28;46588;-68
2023/04/22 11:42:55;;;;;;;2.70;1.13;;;23.90;11.20;;;;;;5039152;28;46431;-69
2023/04/22 11:45:21;;;;;;;2.93;1.43;;;24.00;11.20;;;;;;5035532;28;48053;-67
2023/04/22 11:47:49;;;;;;;2.83;1.47;;;23.90;11.30;;;;;;5040072;28;46703;-68
2023/04/22 11:50:16;;;;;;;2.40;1.10;;;23.90;11.40;;;;;;5041256;28;46380;-68
2023/04/22 11:52:49;;;;;;;2.77;1.27;;;23.90;11.60;;;;;;5045807;28;46568;-69
2023/04/22 11:55:24;;;;;;;2.80;1.10;;;24.10;11.20;;;;;;5041701;28;47063;-67
2023/04/22 11:58:00;;;;;;;3.33;1.40;;;24.20;11.30;;;;;;5040859;28;46529;-67
2023/04/22 12:00:39;;;;;;;2.80;1.30;;;24.30;10.90;;;;;;5038246;28;46997;-67
2023/04/22 12:03:07;;;;;;;2.97;1.17;;;24.40;10.60;;;;;;5036970;28;46388;-67
2023/04/22 12:05:38;;;;;;;2.40;1.10;;;24.30;10.70;;;;;;5039139;28;47026;-67
2023/04/22 12:08:15;;;;;;;3.57;1.20;;;24.30;9.60;;;;;;5040923;28;46001;-67
2023/04/22 12:10:44;;;;;;;2.80;1.50;;;24.30;9.00;;;;;;5039323;28;46471;-67
2023/04/22 12:13:21;;;;;;;3.43;1.50;;;24.30;8.70;;;;;;5041754;28;46468;-68
2023/04/22 12:15:47;;;;;;;2.93;1.33;;;24.20;8.50;;;;;;5040930;28;46359;-68
2023/04/22 12:18:13;;;;;;;5.73;1.40;;;24.30;8.90;;;;;;5042364;28;46337;-67
2023/04/22 12:20:40;;;;;;;2.70;1.30;;;24.30;9.00;;;;;;5040131;28;45769;-67
2023/04/22 12:23:13;;;;;;;2.60;1.20;;;24.20;8.50;;;;;;5040889;28;46438;-67
2023/04/22 12:25:39;;;;;;;2.80;1.30;;;24.20;7.90;;;;;;5039749;28;46430;-68
2023/04/22 12:28:05;;;;;;;2.50;1.30;;;24.10;8.60;;;;;;5041669;28;46456;-67
2023/04/22 12:30:30;;;;;;;4.60;1.10;;;24.00;7.80;;;;;;5040630;28;46320;-67
2023/04/22 12:32:56;;;;;;;2.60;1.20;;;24.00;8.20;;;;;;5041988;28;46554;-67
2023/04/22 12:35:21;;;;;;;4.07;1.70;;;24.20;8.10;;;;;;5038710;28;46499;-68
2023/04/22 12:37:47;;;;;;;2.37;1.20;;;24.10;7.90;;;;;;5040799;28;46413;-67
2023/04/22 12:40:13;;;;;;;3.43;1.33;;;24.20;7.90;;;;;;5039529;28;46527;-67
2023/04/22 12:42:38;;;;;;;2.63;1.33;;;24.20;7.80;;;;;;5041494;28;46349;-68
2023/04/22 12:45:04;;;;;;;3.20;1.13;;;24.40;7.70;;;;;;5039494;28;46394;-68
2023/04/22 12:47:30;;;;;;;4.53;1.40;;;24.20;7.90;;;;;;5043324;28;46425;-68
2023/04/22 12:49:57;;;;;;;2.87;1.10;;;23.70;8.20;;;;;;5041692;28;46594;-67